Terminal Aerodrome Forecast
Issued by NWS

Current Version | Previous Version | Text Only | Print | Product List | Glossary Off
Versions: 1 2 3 4 5 6 7 8 9 10 11 12 13 14 15 16

000
FTUS41 KPBZ 262300
TAFHLG
TAF
KHLG 262330Z 2700/2724 19006KT P6SM BKN200
     FM271000 20003KT P6SM BKN025
     FM271500 18008KT P6SM BKN150=

USA.gov is the U.S. government's official web portal to all federal, state and local government web resources and services.